Jump to content
  • Member Statistics

    16,921
    Total Members
    7,904
    Most Online
    Jun Zz
    Newest Member
    Jun Zz
    Joined

IDA remnants OBS-nowcasts (storm total rain and/or unusual flooding, wind damage-power outage, gusts ~45+ MPH) Wed-Thu morning Sept 1-2, 2021


wdrag
 Share

Recommended Posts

NYC CP as of about 908P  2.13 out so today. Note wind directions below. Unsure if wind eqmt out or a GW? or just a convergent zone. 

KNYC 020106Z AUTO 1/4SM +RA FG BKN008 OVC013 19/18 A2956 RMK AO2 PK WND 26033/0058 P0043 T01890178 $
KNYC 020059Z AUTO 26015G33KT 240V310 1SM +RA BR BKN008 OVC013 21/19 A2959 RMK AO2 PK WND 26033/0058 PRESRR P0004 T02060194 $
KNYC 020051Z AUTO 08012G23KT 2SM RA BR BKN006 OVC013 21/20 A2949 RMK AO2 PK WND 05035/2356 VIS 1 1/2V3 CIG 005V009 PRESFR SLP977 P0055 T02060200 $ 

Link to comment
Share on other sites

2 minutes ago, LibertyBell said:

thats always the case though lol nothing new there

It is up to 74 degrees here though

Total swamp outside. Tomorrow night, north wind 60 degrees, cannot get here fast enough 

  • Like 2
Link to comment
Share on other sites

3 minutes ago, wdrag said:

NYC CP as of about 908P  2.13 out so today. Note wind directions below. Unsure if wind eqmt out or a GW? or just a convergent zone. 

KNYC 020106Z AUTO 1/4SM +RA FG BKN008 OVC013 19/18 A2956 RMK AO2 PK WND 26033/0058 P0043 T01890178 $
KNYC 020059Z AUTO 26015G33KT 240V310 1SM +RA BR BKN008 OVC013 21/19 A2959 RMK AO2 PK WND 26033/0058 PRESRR P0004 T02060194 $
KNYC 020051Z AUTO 08012G23KT 2SM RA BR BKN006 OVC013 21/20 A2949 RMK AO2 PK WND 05035/2356 VIS 1 1/2V3 CIG 005V009 PRESFR SLP977 P0055 T02060200 $ 

 

KJFK 020124Z 13020G33KT 6SM -TSRA BR BKN010 BKN023CB 24/23 A2950 RMK AO2 PK WND 12033/0117 LTG DSNT N AND SW TSB24 FRQ LTGIC OHD-SW TS OHD-SW MOV NE P0002 T02390233


KLGA 020122Z 34012G31KT 1 1/2SM R04/3000VP6000FT +TSRA BKN006 BKN012 OVC017CB 20/M01 A2952 RMK AO2 PK WND 25035/0110 WSHFT 0103 LTG DSNT ALQDS OCNL LTGICCG OHD TS OHD MOV NE P0037 T02001006


KEWR 020109Z 35019G29KT 1SM R04R/1200VP6000FT +TSRA BR BKN007 BKN011 OVC018CB 19/18 A2954 RMK AO2 PK WND 36032/0057 WSHFT 0048 LTG DSNT ALQDS FRQ LTGICCG OHD TS OHD MOV NE P0091 T01940183 $


KFRG 020116Z 11017G33KT 10SM FEW007 BKN011 OVC027 23/22 A2956 RMK AO2 PK WND 12033/0107 LTG DSNT SW-N RAE16 PRESFR P0002 T02330217


KISP 020056Z 09012G22KT 5SM BR SCT007 BKN013 OVC023 21/21 A2964 RMK AO2 LTG DSNT W AND NW RAE45 SLP035 P0010 T02110206 $

 

Wide array of wind directions depending on front location and storm situation

 

EWR and LGA with NW winds

  • Like 1
Link to comment
Share on other sites

3 minutes ago, LibertyBell said:

I've had the a/c running full blast since 8 PM....you should too

 

3 dehumidifiers now, both central air systems non stop. PSEG LI just rang the doorbell and brought the wife flowers. We’re testing the grid!

  • Haha 3
Link to comment
Share on other sites

Join the conversation

You can post now and register later. If you have an account, sign in now to post with your account.

Guest
Reply to this topic...

×   Pasted as rich text.   Paste as plain text instead

  Only 75 emoji are allowed.

×   Your link has been automatically embedded.   Display as a link instead

×   Your previous content has been restored.   Clear editor

×   You cannot paste images directly. Upload or insert images from URL.

Loading...
 Share

  • Recently Browsing   0 members

    No registered users viewing this page.

×
×
  • Create New...